sensor_id;sensor_type;location;lat;lon;timestamp;pressure;altitude;pressure_sealevel;temperature;humidity
47080;BME280;33067;49.296;14.470;2023-03-23T00:01:38;96483.40;;;12.32;38.81
47080;BME280;33067;49.296;14.470;2023-03-23T00:04:03;96483.35;;;12.55;38.37
47080;BME280;33067;49.296;14.470;2023-03-23T00:06:28;96484.39;;;12.45;38.44
47080;BME280;33067;49.296;14.470;2023-03-23T00:08:55;96487.73;;;12.49;38.36
47080;BME280;33067;49.296;14.470;2023-03-23T00:11:21;96482.19;;;12.25;38.28
47080;BME280;33067;49.296;14.470;2023-03-23T00:13:48;96484.52;;;12.35;38.33
47080;BME280;33067;49.296;14.470;2023-03-23T00:16:11;96484.62;;;12.20;38.42
47080;BME280;33067;49.296;14.470;2023-03-23T00:18:36;96483.96;;;12.11;38.52
47080;BME280;33067;49.296;14.470;2023-03-23T00:21:01;96483.66;;;12.10;38.40
47080;BME280;33067;49.296;14.470;2023-03-23T00:23:27;96484.36;;;11.96;38.52
47080;BME280;33067;49.296;14.470;2023-03-23T00:25:53;96485.48;;;11.78;38.91
47080;BME280;33067;49.296;14.470;2023-03-23T00:28:18;96489.01;;;11.80;38.89
47080;BME280;33067;49.296;14.470;2023-03-23T00:30:43;96486.74;;;11.77;38.88
47080;BME280;33067;49.296;14.470;2023-03-23T00:33:09;96482.80;;;11.84;38.86
47080;BME280;33067;49.296;14.470;2023-03-23T00:35:34;96479.41;;;11.86;38.78
47080;BME280;33067;49.296;14.470;2023-03-23T00:37:59;96479.37;;;11.83;38.85
47080;BME280;33067;49.296;14.470;2023-03-23T00:40:24;96480.52;;;12.36;38.73
47080;BME280;33067;49.296;14.470;2023-03-23T00:42:49;96483.26;;;11.77;38.89
47080;BME280;33067;49.296;14.470;2023-03-23T00:45:15;96480.19;;;11.67;39.03
47080;BME280;33067;49.296;14.470;2023-03-23T00:47:40;96477.98;;;12.18;38.85
47080;BME280;33067;49.296;14.470;2023-03-23T00:50:07;96476.83;;;11.53;39.15
47080;BME280;33067;49.296;14.470;2023-03-23T00:52:31;96475.17;;;11.87;38.86
47080;BME280;33067;49.296;14.470;2023-03-23T00:54:57;96473.61;;;11.85;39.09
47080;BME280;33067;49.296;14.470;2023-03-23T00:57:22;96469.54;;;11.73;39.31
47080;BME280;33067;49.296;14.470;2023-03-23T00:59:47;96469.72;;;11.29;39.47
47080;BME280;33067;49.296;14.470;2023-03-23T01:02:13;96466.70;;;11.48;39.51
47080;BME280;33067;49.296;14.470;2023-03-23T01:04:39;96458.20;;;11.50;39.38
47080;BME280;33067;49.296;14.470;2023-03-23T01:07:04;96456.42;;;11.09;39.36
47080;BME280;33067;49.296;14.470;2023-03-23T01:09:30;96456.12;;;11.66;39.41
47080;BME280;33067;49.296;14.470;2023-03-23T01:11:55;96455.79;;;11.26;39.71
47080;BME280;33067;49.296;14.470;2023-03-23T01:14:21;96454.69;;;11.48;39.81
47080;BME280;33067;49.296;14.470;2023-03-23T01:16:46;96450.93;;;11.59;39.59
47080;BME280;33067;49.296;14.470;2023-03-23T01:19:12;96454.99;;;11.52;39.69
47080;BME280;33067;49.296;14.470;2023-03-23T01:21:37;96453.71;;;11.24;39.74
47080;BME280;33067;49.296;14.470;2023-03-23T01:24:03;96449.78;;;11.33;39.77
47080;BME280;33067;49.296;14.470;2023-03-23T01:26:29;96446.50;;;11.34;39.58
47080;BME280;33067;49.296;14.470;2023-03-23T01:28:54;96446.78;;;11.10;40.04
47080;BME280;33067;49.296;14.470;2023-03-23T01:31:20;96447.00;;;10.97;39.99
47080;BME280;33067;49.296;14.470;2023-03-23T01:33:45;96442.26;;;11.25;39.83
47080;BME280;33067;49.296;14.470;2023-03-23T01:36:12;96442.00;;;11.26;39.62
47080;BME280;33067;49.296;14.470;2023-03-23T01:38:35;96444.80;;;11.25;39.63
47080;BME280;33067;49.296;14.470;2023-03-23T01:41:02;96439.92;;;11.20;39.70
47080;BME280;33067;49.296;14.470;2023-03-23T01:43:27;96435.15;;;11.25;39.67
47080;BME280;33067;49.296;14.470;2023-03-23T01:45:51;96433.54;;;11.30;39.55
47080;BME280;33067;49.296;14.470;2023-03-23T01:48:20;96430.85;;;11.36;39.49
47080;BME280;33067;49.296;14.470;2023-03-23T01:50:48;96440.84;;;10.86;40.26
47080;BME280;33067;49.296;14.470;2023-03-23T01:53:09;96439.07;;;10.88;40.30
47080;BME280;33067;49.296;14.470;2023-03-23T01:55:33;96438.92;;;10.36;41.08
47080;BME280;33067;49.296;14.470;2023-03-23T01:57:59;96445.69;;;10.39;41.55
47080;BME280;33067;49.296;14.470;2023-03-23T02:00:25;96447.10;;;10.32;41.65
47080;BME280;33067;49.296;14.470;2023-03-23T02:02:52;96445.50;;;10.52;40.98
47080;BME280;33067;49.296;14.470;2023-03-23T02:05:21;96445.63;;;10.89;40.77
47080;BME280;33067;49.296;14.470;2023-03-23T02:07:42;96441.34;;;10.89;40.01
47080;BME280;33067;49.296;14.470;2023-03-23T02:10:08;96440.17;;;10.62;40.48
47080;BME280;33067;49.296;14.470;2023-03-23T02:12:33;96444.57;;;10.78;40.21
47080;BME280;33067;49.296;14.470;2023-03-23T02:14:58;96447.39;;;11.09;40.19
47080;BME280;33067;49.296;14.470;2023-03-23T02:17:29;96445.28;;;10.93;40.06
47080;BME280;33067;49.296;14.470;2023-03-23T02:20:06;96444.35;;;10.68;40.39
47080;BME280;33067;49.296;14.470;2023-03-23T02:22:33;96447.86;;;10.77;40.27
47080;BME280;33067;49.296;14.470;2023-03-23T02:24:57;96448.79;;;11.13;40.13
47080;BME280;33067;49.296;14.470;2023-03-23T02:27:09;96447.01;;;10.83;40.20
47080;BME280;33067;49.296;14.470;2023-03-23T02:29:45;96444.21;;;10.92;40.13
47080;BME280;33067;49.296;14.470;2023-03-23T02:32:07;96445.19;;;10.96;40.09
47080;BME280;33067;49.296;14.470;2023-03-23T02:34:28;96446.45;;;11.13;39.91
47080;BME280;33067;49.296;14.470;2023-03-23T02:36:53;96444.91;;;11.19;39.79
47080;BME280;33067;49.296;14.470;2023-03-23T02:39:19;96443.27;;;11.01;40.02
47080;BME280;33067;49.296;14.470;2023-03-23T02:41:44;96437.65;;;10.79;40.15
47080;BME280;33067;49.296;14.470;2023-03-23T02:44:06;96435.79;;;10.55;40.55
47080;BME280;33067;49.296;14.470;2023-03-23T02:46:31;96429.33;;;10.13;41.32
47080;BME280;33067;49.296;14.470;2023-03-23T02:48:57;96428.75;;;10.19;41.18
47080;BME280;33067;49.296;14.470;2023-03-23T02:51:23;96431.93;;;10.57;40.95
47080;BME280;33067;49.296;14.470;2023-03-23T02:53:50;96432.36;;;9.59;42.54
47080;BME280;33067;49.296;14.470;2023-03-23T02:56:14;96424.19;;;9.71;42.62
47080;BME280;33067;49.296;14.470;2023-03-23T02:58:38;96425.17;;;10.40;42.01
47080;BME280;33067;49.296;14.470;2023-03-23T03:03:30;96405.00;;;10.27;41.73
47080;BME280;33067;49.296;14.470;2023-03-23T03:06:01;96407.92;;;10.48;41.52
47080;BME280;33067;49.296;14.470;2023-03-23T03:08:24;96415.10;;;10.45;41.64
47080;BME280;33067;49.296;14.470;2023-03-23T03:13:03;96418.35;;;10.15;42.19
47080;BME280;33067;49.296;14.470;2023-03-23T03:15:29;96421.86;;;10.50;41.90
47080;BME280;33067;49.296;14.470;2023-03-23T03:17:54;96418.16;;;10.46;41.28
47080;BME280;33067;49.296;14.470;2023-03-23T03:20:15;96418.96;;;10.51;40.93
47080;BME280;33067;49.296;14.470;2023-03-23T03:22:41;96417.89;;;10.64;40.54
47080;BME280;33067;49.296;14.470;2023-03-23T03:25:06;96417.05;;;10.54;40.56
47080;BME280;33067;49.296;14.470;2023-03-23T03:27:31;96418.60;;;10.73;40.14
47080;BME280;33067;49.296;14.470;2023-03-23T03:29:58;96422.23;;;10.43;40.52
47080;BME280;33067;49.296;14.470;2023-03-23T03:32:24;96419.97;;;10.55;40.19
47080;BME280;33067;49.296;14.470;2023-03-23T03:34:46;96428.11;;;10.79;39.98
47080;BME280;33067;49.296;14.470;2023-03-23T03:37:12;96429.46;;;10.80;40.10
47080;BME280;33067;49.296;14.470;2023-03-23T03:39:37;96427.63;;;10.87;40.11
47080;BME280;33067;49.296;14.470;2023-03-23T03:42:03;96431.83;;;11.06;40.22
47080;BME280;33067;49.296;14.470;2023-03-23T03:44:28;96432.03;;;11.09;40.07
47080;BME280;33067;49.296;14.470;2023-03-23T03:46:53;96437.19;;;10.60;40.58
47080;BME280;33067;49.296;14.470;2023-03-23T03:49:19;96443.86;;;10.33;41.01
47080;BME280;33067;49.296;14.470;2023-03-23T03:51:45;96446.38;;;10.46;41.37
47080;BME280;33067;49.296;14.470;2023-03-23T03:54:10;96441.93;;;10.43;40.92
47080;BME280;33067;49.296;14.470;2023-03-23T03:56:36;96450.32;;;10.29;41.18
47080;BME280;33067;49.296;14.470;2023-03-23T03:59:01;96457.14;;;10.33;41.11
47080;BME280;33067;49.296;14.470;2023-03-23T04:01:27;96438.66;;;10.48;40.90
47080;BME280;33067;49.296;14.470;2023-03-23T04:03:52;96439.84;;;10.43;41.40
47080;BME280;33067;49.296;14.470;2023-03-23T04:06:19;96444.96;;;10.30;41.63
47080;BME280;33067;49.296;14.470;2023-03-23T04:08:43;96451.37;;;10.26;41.81
47080;BME280;33067;49.296;14.470;2023-03-23T04:11:11;96455.17;;;10.31;41.89
47080;BME280;33067;49.296;14.470;2023-03-23T04:13:35;96451.51;;;10.30;42.03
47080;BME280;33067;49.296;14.470;2023-03-23T04:16:00;96460.84;;;10.60;41.65
47080;BME280;33067;49.296;14.470;2023-03-23T04:18:25;96465.37;;;10.44;41.44
47080;BME280;33067;49.296;14.470;2023-03-23T04:20:51;96471.09;;;10.21;41.72
47080;BME280;33067;49.296;14.470;2023-03-23T04:23:17;96471.17;;;10.53;41.61
47080;BME280;33067;49.296;14.470;2023-03-23T04:25:41;96471.72;;;10.33;41.59
47080;BME280;33067;49.296;14.470;2023-03-23T04:28:06;96466.53;;;10.89;41.27
47080;BME280;33067;49.296;14.470;2023-03-23T04:30:32;96458.57;;;10.54;41.35
47080;BME280;33067;49.296;14.470;2023-03-23T04:32:57;96456.47;;;10.35;41.86
47080;BME280;33067;49.296;14.470;2023-03-23T04:35:24;96451.92;;;10.10;42.34
47080;BME280;33067;49.296;14.470;2023-03-23T04:37:48;96452.55;;;10.36;42.22
47080;BME280;33067;49.296;14.470;2023-03-23T04:40:15;96457.02;;;9.32;43.09
47080;BME280;33067;49.296;14.470;2023-03-23T04:42:40;96457.04;;;9.54;43.24
47080;BME280;33067;49.296;14.470;2023-03-23T04:45:06;96459.23;;;9.58;43.17
47080;BME280;33067;49.296;14.470;2023-03-23T04:47:32;96460.43;;;9.54;42.87
47080;BME280;33067;49.296;14.470;2023-03-23T04:49:56;96463.68;;;9.56;42.52
47080;BME280;33067;49.296;14.470;2023-03-23T04:52:22;96466.84;;;9.20;42.63
47080;BME280;33067;49.296;14.470;2023-03-23T04:54:47;96469.05;;;9.81;42.39
47080;BME280;33067;49.296;14.470;2023-03-23T04:57:12;96468.30;;;9.53;42.09
47080;BME280;33067;49.296;14.470;2023-03-23T04:59:38;96467.84;;;9.79;42.10
47080;BME280;33067;49.296;14.470;2023-03-23T05:02:03;96477.62;;;9.63;42.55
47080;BME280;33067;49.296;14.470;2023-03-23T05:04:28;96481.26;;;9.69;42.40
47080;BME280;33067;49.296;14.470;2023-03-23T05:06:54;96479.80;;;9.64;42.46
47080;BME280;33067;49.296;14.470;2023-03-23T05:09:20;96483.21;;;10.07;42.03
47080;BME280;33067;49.296;14.470;2023-03-23T05:11:45;96483.60;;;10.03;41.94
47080;BME280;33067;49.296;14.470;2023-03-23T05:14:10;96484.47;;;9.90;42.17
47080;BME280;33067;49.296;14.470;2023-03-23T05:16:35;96489.28;;;9.89;42.48
47080;BME280;33067;49.296;14.470;2023-03-23T05:19:01;96495.81;;;10.15;42.17
47080;BME280;33067;49.296;14.470;2023-03-23T05:21:26;96498.79;;;10.04;42.22
47080;BME280;33067;49.296;14.470;2023-03-23T05:23:52;96500.52;;;10.57;41.73
47080;BME280;33067;49.296;14.470;2023-03-23T05:26:18;96502.02;;;10.14;42.42
47080;BME280;33067;49.296;14.470;2023-03-23T05:28:43;96501.92;;;10.38;42.01
47080;BME280;33067;49.296;14.470;2023-03-23T05:31:09;96499.70;;;10.51;41.66
47080;BME280;33067;49.296;14.470;2023-03-23T05:33:34;96504.37;;;10.22;41.80
47080;BME280;33067;49.296;14.470;2023-03-23T05:35:59;96503.68;;;10.22;41.87
47080;BME280;33067;49.296;14.470;2023-03-23T05:38:24;96503.08;;;10.82;41.62
47080;BME280;33067;49.296;14.470;2023-03-23T05:40:50;96502.07;;;10.04;42.27
47080;BME280;33067;49.296;14.470;2023-03-23T05:43:15;96500.79;;;10.26;42.97
47080;BME280;33067;49.296;14.470;2023-03-23T05:45:40;96503.26;;;10.21;42.73
47080;BME280;33067;49.296;14.470;2023-03-23T05:48:06;96504.96;;;10.30;42.81
47080;BME280;33067;49.296;14.470;2023-03-23T05:50:32;96503.37;;;10.36;42.46
47080;BME280;33067;49.296;14.470;2023-03-23T05:52:57;96498.13;;;10.42;42.05
47080;BME280;33067;49.296;14.470;2023-03-23T05:55:23;96494.66;;;10.12;42.76
47080;BME280;33067;49.296;14.470;2023-03-23T05:57:48;96492.67;;;10.35;42.37
47080;BME280;33067;49.296;14.470;2023-03-23T06:00:15;96494.44;;;10.33;42.30
47080;BME280;33067;49.296;14.470;2023-03-23T06:02:40;96495.67;;;10.31;42.50
47080;BME280;33067;49.296;14.470;2023-03-23T06:05:06;96493.21;;;10.68;42.09
47080;BME280;33067;49.296;14.470;2023-03-23T06:07:30;96497.15;;;10.55;42.50
47080;BME280;33067;49.296;14.470;2023-03-23T06:09:56;96501.94;;;10.60;42.20
47080;BME280;33067;49.296;14.470;2023-03-23T06:12:21;96506.93;;;10.66;42.14
47080;BME280;33067;49.296;14.470;2023-03-23T06:14:46;96507.33;;;10.66;42.36
47080;BME280;33067;49.296;14.470;2023-03-23T06:17:12;96500.98;;;10.87;42.28
47080;BME280;33067;49.296;14.470;2023-03-23T06:19:37;96504.70;;;10.92;42.19
47080;BME280;33067;49.296;14.470;2023-03-23T06:22:02;96502.44;;;10.99;42.22
47080;BME280;33067;49.296;14.470;2023-03-23T06:24:28;96496.06;;;11.02;42.31
47080;BME280;33067;49.296;14.470;2023-03-23T06:26:53;96497.07;;;11.00;42.52
47080;BME280;33067;49.296;14.470;2023-03-23T06:29:18;96505.32;;;10.78;42.73
47080;BME280;33067;49.296;14.470;2023-03-23T06:31:46;96501.14;;;10.98;42.63
47080;BME280;33067;49.296;14.470;2023-03-23T06:34:09;96506.17;;;10.87;42.47
47080;BME280;33067;49.296;14.470;2023-03-23T06:36:34;96502.64;;;10.98;42.77
47080;BME280;33067;49.296;14.470;2023-03-23T06:38:59;96509.63;;;10.75;42.59
47080;BME280;33067;49.296;14.470;2023-03-23T06:41:25;96505.95;;;11.39;42.29
47080;BME280;33067;49.296;14.470;2023-03-23T06:43:51;96502.73;;;11.12;41.85
47080;BME280;33067;49.296;14.470;2023-03-23T06:46:16;96500.71;;;11.59;41.91
47080;BME280;33067;49.296;14.470;2023-03-23T06:48:42;96502.77;;;11.49;41.79
47080;BME280;33067;49.296;14.470;2023-03-23T06:51:07;96502.59;;;11.37;41.65
47080;BME280;33067;49.296;14.470;2023-03-23T06:53:33;96497.97;;;11.67;41.36
47080;BME280;33067;49.296;14.470;2023-03-23T06:55:59;96496.53;;;11.72;41.16
47080;BME280;33067;49.296;14.470;2023-03-23T06:58:24;96487.20;;;11.73;41.22
47080;BME280;33067;49.296;14.470;2023-03-23T07:00:53;96487.39;;;11.50;41.43
47080;BME280;33067;49.296;14.470;2023-03-23T07:03:15;96486.26;;;11.90;41.66
47080;BME280;33067;49.296;14.470;2023-03-23T07:05:40;96488.88;;;12.03;41.54
47080;BME280;33067;49.296;14.470;2023-03-23T07:08:06;96482.23;;;11.59;41.62
47080;BME280;33067;49.296;14.470;2023-03-23T07:10:31;96482.11;;;11.63;41.73
47080;BME280;33067;49.296;14.470;2023-03-23T07:12:57;96487.73;;;11.52;42.08
47080;BME280;33067;49.296;14.470;2023-03-23T07:15:22;96486.13;;;11.79;41.68
47080;BME280;33067;49.296;14.470;2023-03-23T07:17:48;96483.30;;;11.59;42.04
47080;BME280;33067;49.296;14.470;2023-03-23T07:20:13;96484.38;;;11.69;42.09
47080;BME280;33067;49.296;14.470;2023-03-23T07:22:38;96484.18;;;11.78;42.17
47080;BME280;33067;49.296;14.470;2023-03-23T07:25:04;96487.82;;;11.87;42.16
47080;BME280;33067;49.296;14.470;2023-03-23T07:27:29;96490.56;;;11.78;42.29
47080;BME280;33067;49.296;14.470;2023-03-23T07:29:54;96491.76;;;11.77;42.09
47080;BME280;33067;49.296;14.470;2023-03-23T07:32:20;96491.50;;;12.05;41.93
47080;BME280;33067;49.296;14.470;2023-03-23T07:34:45;96489.07;;;11.77;42.13
47080;BME280;33067;49.296;14.470;2023-03-23T07:37:10;96485.38;;;12.12;41.74
47080;BME280;33067;49.296;14.470;2023-03-23T07:39:35;96486.44;;;12.13;41.79
47080;BME280;33067;49.296;14.470;2023-03-23T07:42:01;96484.78;;;12.01;41.30
47080;BME280;33067;49.296;14.470;2023-03-23T07:44:26;96486.06;;;12.10;41.48
47080;BME280;33067;49.296;14.470;2023-03-23T07:46:52;96486.59;;;12.51;41.51
47080;BME280;33067;49.296;14.470;2023-03-23T07:49:17;96490.20;;;12.66;41.53
47080;BME280;33067;49.296;14.470;2023-03-23T07:51:42;96486.34;;;12.52;41.57
47080;BME280;33067;49.296;14.470;2023-03-23T07:54:07;96487.83;;;12.78;42.01
47080;BME280;33067;49.296;14.470;2023-03-23T07:56:33;96493.67;;;12.39;42.08
47080;BME280;33067;49.296;14.470;2023-03-23T07:58:59;96490.89;;;12.69;42.20
47080;BME280;33067;49.296;14.470;2023-03-23T08:01:24;96486.73;;;12.84;42.16
47080;BME280;33067;49.296;14.470;2023-03-23T08:03:49;96481.72;;;12.85;41.99
47080;BME280;33067;49.296;14.470;2023-03-23T08:06:14;96480.08;;;13.58;41.69
47080;BME280;33067;49.296;14.470;2023-03-23T08:08:40;96476.09;;;13.13;41.94
47080;BME280;33067;49.296;14.470;2023-03-23T08:11:06;96476.76;;;13.65;41.78
47080;BME280;33067;49.296;14.470;2023-03-23T08:13:32;96473.69;;;13.50;41.62
47080;BME280;33067;49.296;14.470;2023-03-23T08:15:56;96464.22;;;13.64;41.56
47080;BME280;33067;49.296;14.470;2023-03-23T08:18:22;96461.49;;;13.65;41.31
47080;BME280;33067;49.296;14.470;2023-03-23T08:20:48;96463.61;;;14.10;41.29
47080;BME280;33067;49.296;14.470;2023-03-23T08:23:13;96462.44;;;13.81;41.55
47080;BME280;33067;49.296;14.470;2023-03-23T08:25:38;96463.74;;;13.92;41.74
47080;BME280;33067;49.296;14.470;2023-03-23T08:28:04;96463.55;;;14.15;41.27
47080;BME280;33067;49.296;14.470;2023-03-23T08:30:30;96464.29;;;14.25;41.05
47080;BME280;33067;49.296;14.470;2023-03-23T08:32:55;96463.68;;;14.45;40.90
47080;BME280;33067;49.296;14.470;2023-03-23T08:35:20;96463.22;;;14.61;40.26
47080;BME280;33067;49.296;14.470;2023-03-23T08:37:46;96465.83;;;14.57;40.08
47080;BME280;33067;49.296;14.470;2023-03-23T08:40:12;96464.84;;;14.97;40.52
47080;BME280;33067;49.296;14.470;2023-03-23T08:42:37;96464.94;;;14.84;39.86
47080;BME280;33067;49.296;14.470;2023-03-23T08:45:02;96458.24;;;15.00;40.25
47080;BME280;33067;49.296;14.470;2023-03-23T08:47:27;96456.97;;;14.87;39.36
47080;BME280;33067;49.296;14.470;2023-03-23T08:49:52;96455.23;;;15.36;39.99
47080;BME280;33067;49.296;14.470;2023-03-23T08:52:18;96455.81;;;15.28;39.39
47080;BME280;33067;49.296;14.470;2023-03-23T08:54:43;96456.80;;;15.43;39.29
47080;BME280;33067;49.296;14.470;2023-03-23T08:57:08;96454.88;;;15.67;37.48
47080;BME280;33067;49.296;14.470;2023-03-23T08:59:34;96451.62;;;15.35;37.42
47080;BME280;33067;49.296;14.470;2023-03-23T09:01:59;96450.24;;;16.43;36.84
47080;BME280;33067;49.296;14.470;2023-03-23T09:04:24;96446.76;;;16.10;36.81
47080;BME280;33067;49.296;14.470;2023-03-23T09:06:50;96436.39;;;15.90;36.23
47080;BME280;33067;49.296;14.470;2023-03-23T09:09:16;96432.63;;;16.21;35.53
47080;BME280;33067;49.296;14.470;2023-03-23T09:11:41;96431.28;;;16.54;34.11
47080;BME280;33067;49.296;14.470;2023-03-23T09:14:07;96427.74;;;16.56;33.94
47080;BME280;33067;49.296;14.470;2023-03-23T09:16:32;96428.85;;;16.66;33.49
47080;BME280;33067;49.296;14.470;2023-03-23T09:18:57;96431.29;;;16.85;32.45
47080;BME280;33067;49.296;14.470;2023-03-23T09:21:22;96430.34;;;16.90;31.84
47080;BME280;33067;49.296;14.470;2023-03-23T09:23:47;96430.30;;;17.20;31.73
47080;BME280;33067;49.296;14.470;2023-03-23T09:26:12;96428.98;;;17.38;31.40
47080;BME280;33067;49.296;14.470;2023-03-23T09:28:39;96431.11;;;17.61;31.24
47080;BME280;33067;49.296;14.470;2023-03-23T09:31:03;96432.85;;;17.64;31.25
47080;BME280;33067;49.296;14.470;2023-03-23T09:33:28;96432.36;;;17.65;30.96
47080;BME280;33067;49.296;14.470;2023-03-23T09:35:53;96432.61;;;17.76;31.44
47080;BME280;33067;49.296;14.470;2023-03-23T09:38:18;96434.61;;;17.53;31.65
47080;BME280;33067;49.296;14.470;2023-03-23T09:40:47;96435.30;;;17.43;31.59
47080;BME280;33067;49.296;14.470;2023-03-23T09:45:40;96434.39;;;18.15;29.96
47080;BME280;33067;49.296;14.470;2023-03-23T09:50:28;96432.14;;;18.57;30.29
47080;BME280;33067;49.296;14.470;2023-03-23T09:52:53;96427.17;;;18.85;30.00
47080;BME280;33067;49.296;14.470;2023-03-23T09:55:17;96422.48;;;18.66;29.54
47080;BME280;33067;49.296;14.470;2023-03-23T09:57:46;96420.89;;;19.07;29.01
47080;BME280;33067;49.296;14.470;2023-03-23T10:00:11;96416.37;;;19.13;28.84
47080;BME280;33067;49.296;14.470;2023-03-23T10:02:36;96415.76;;;18.89;28.61
47080;BME280;33067;49.296;14.470;2023-03-23T10:05:18;96410.96;;;19.26;28.20
47080;BME280;33067;49.296;14.470;2023-03-23T10:07:24;96410.58;;;19.11;28.31
47080;BME280;33067;49.296;14.470;2023-03-23T10:09:51;96404.57;;;19.49;28.39
47080;BME280;33067;49.296;14.470;2023-03-23T10:12:29;96400.79;;;19.37;28.44
47080;BME280;33067;49.296;14.470;2023-03-23T10:14:55;96402.29;;;19.48;28.00
47080;BME280;33067;49.296;14.470;2023-03-23T10:17:12;96403.69;;;19.34;28.16
47080;BME280;33067;49.296;14.470;2023-03-23T10:19:34;96407.94;;;19.62;27.36
47080;BME280;33067;49.296;14.470;2023-03-23T10:21:59;96409.21;;;19.51;26.69
47080;BME280;33067;49.296;14.470;2023-03-23T10:24:25;96409.70;;;19.68;26.89
47080;BME280;33067;49.296;14.470;2023-03-23T10:26:55;96402.00;;;19.88;26.49
47080;BME280;33067;49.296;14.470;2023-03-23T10:29:16;96402.38;;;20.06;26.71
47080;BME280;33067;49.296;14.470;2023-03-23T10:31:39;96395.38;;;20.09;25.82
47080;BME280;33067;49.296;14.470;2023-03-23T10:34:04;96396.44;;;19.79;25.93
47080;BME280;33067;49.296;14.470;2023-03-23T10:36:30;96389.17;;;20.11;25.96
47080;BME280;33067;49.296;14.470;2023-03-23T10:38:57;96393.52;;;20.55;25.84
47080;BME280;33067;49.296;14.470;2023-03-23T10:41:18;96394.18;;;20.70;24.78
47080;BME280;33067;49.296;14.470;2023-03-23T10:43:42;96394.43;;;20.74;24.66
47080;BME280;33067;49.296;14.470;2023-03-23T10:46:18;96395.25;;;20.89;24.35
47080;BME280;33067;49.296;14.470;2023-03-23T10:48:36;96386.97;;;20.70;24.51
47080;BME280;33067;49.296;14.470;2023-03-23T10:51:00;96385.62;;;20.78;24.52
47080;BME280;33067;49.296;14.470;2023-03-23T10:53:25;96383.17;;;20.28;24.95
47080;BME280;33067;49.296;14.470;2023-03-23T10:55:47;96382.25;;;20.80;24.75
47080;BME280;33067;49.296;14.470;2023-03-23T10:58:22;96385.37;;;21.14;24.46
47080;BME280;33067;49.296;14.470;2023-03-23T11:00:41;96385.59;;;20.35;24.62
47080;BME280;33067;49.296;14.470;2023-03-23T11:03:04;96378.90;;;20.13;24.33
47080;BME280;33067;49.296;14.470;2023-03-23T11:05:33;96374.94;;;20.73;24.15
47080;BME280;33067;49.296;14.470;2023-03-23T11:07:56;96373.91;;;20.99;24.61
47080;BME280;33067;49.296;14.470;2023-03-23T11:10:23;96372.55;;;21.42;24.24
47080;BME280;33067;49.296;14.470;2023-03-23T11:12:45;96368.15;;;21.16;23.56
47080;BME280;33067;49.296;14.470;2023-03-23T11:15:24;96365.87;;;20.96;23.73
47080;BME280;33067;49.296;14.470;2023-03-23T11:17:32;96364.69;;;21.35;23.73
47080;BME280;33067;49.296;14.470;2023-03-23T11:19:57;96364.13;;;21.36;23.65
47080;BME280;33067;49.296;14.470;2023-03-23T11:22:26;96362.77;;;21.45;23.21
47080;BME280;33067;49.296;14.470;2023-03-23T11:24:53;96369.15;;;21.53;23.56
47080;BME280;33067;49.296;14.470;2023-03-23T11:27:15;96365.58;;;21.79;23.57
47080;BME280;33067;49.296;14.470;2023-03-23T11:29:47;96366.77;;;21.92;23.46
47080;BME280;33067;49.296;14.470;2023-03-23T11:32:06;96370.05;;;21.84;23.51
47080;BME280;33067;49.296;14.470;2023-03-23T11:34:32;96367.34;;;21.80;23.43
47080;BME280;33067;49.296;14.470;2023-03-23T11:36:59;96364.62;;;21.99;23.39
47080;BME280;33067;49.296;14.470;2023-03-23T11:39:23;96365.67;;;21.94;23.32
47080;BME280;33067;49.296;14.470;2023-03-23T11:41:47;96362.69;;;22.24;23.04
47080;BME280;33067;49.296;14.470;2023-03-23T11:44:12;96361.28;;;21.60;23.39
47080;BME280;33067;49.296;14.470;2023-03-23T11:46:44;96358.92;;;22.22;23.39
47080;BME280;33067;49.296;14.470;2023-03-23T11:49:08;96353.82;;;21.70;23.14
47080;BME280;33067;49.296;14.470;2023-03-23T11:51:34;96347.10;;;22.55;22.80
47080;BME280;33067;49.296;14.470;2023-03-23T11:54:00;96347.65;;;22.52;23.47
47080;BME280;33067;49.296;14.470;2023-03-23T11:56:24;96346.22;;;22.18;23.41
47080;BME280;33067;49.296;14.470;2023-03-23T11:58:44;96346.31;;;22.19;23.06
47080;BME280;33067;49.296;14.470;2023-03-23T12:01:19;96348.58;;;22.35;22.95
47080;BME280;33067;49.296;14.470;2023-03-23T12:03:50;96346.61;;;22.35;23.05
47080;BME280;33067;49.296;14.470;2023-03-23T12:06:03;96336.98;;;22.09;22.65
47080;BME280;33067;49.296;14.470;2023-03-23T12:08:38;96336.50;;;22.57;22.24
47080;BME280;33067;49.296;14.470;2023-03-23T12:10:58;96329.91;;;22.35;22.15
47080;BME280;33067;49.296;14.470;2023-03-23T12:13:29;96332.15;;;22.14;22.00
47080;BME280;33067;49.296;14.470;2023-03-23T12:15:49;96330.26;;;21.91;21.95
47080;BME280;33067;49.296;14.470;2023-03-23T12:18:19;96328.76;;;21.66;22.13
47080;BME280;33067;49.296;14.470;2023-03-23T12:20:43;96337.18;;;21.48;22.03
47080;BME280;33067;49.296;14.470;2023-03-23T12:23:11;96331.76;;;21.06;21.90
47080;BME280;33067;49.296;14.470;2023-03-23T12:25:38;96322.21;;;21.57;21.94
47080;BME280;33067;49.296;14.470;2023-03-23T12:27:58;96323.39;;;20.35;22.54
47080;BME280;33067;49.296;14.470;2023-03-23T12:30:28;96319.53;;;21.02;22.40
47080;BME280;33067;49.296;14.470;2023-03-23T12:32:52;96322.69;;;20.83;22.31
47080;BME280;33067;49.296;14.470;2023-03-23T12:35:20;96332.03;;;21.14;22.06
47080;BME280;33067;49.296;14.470;2023-03-23T12:37:47;96328.39;;;21.24;21.87
47080;BME280;33067;49.296;14.470;2023-03-23T12:40:18;96328.56;;;20.95;22.10
47080;BME280;33067;49.296;14.470;2023-03-23T12:42:37;96336.92;;;20.99;22.41
47080;BME280;33067;49.296;14.470;2023-03-23T12:44:54;96336.24;;;20.77;22.59
47080;BME280;33067;49.296;14.470;2023-03-23T12:47:30;96338.26;;;21.47;22.59
47080;BME280;33067;49.296;14.470;2023-03-23T12:49:48;96335.79;;;20.37;22.90